Аэропорт: Гродно. Гродно

ICAO: UMMG

METAR:
2019/03/26 13:00
UMMG 261300Z 22008G12MPS 9999 BKN026 OVC066 04/M08 Q1008 R17/CLRD// NOSIG
METAR:
2018/08/30 12:24
TAF UMMG 301100Z 3012/30218 18005MPS 9999 BKN020